createdAt,value
2018-05-02T00:02:56.145Z,72.4
2018-05-02T00:07:56.018Z,72.4
2018-05-02T00:12:56.155Z,71.6
2018-05-02T00:18:08.656Z,72.2
2018-05-02T00:23:08.398Z,71.8
2018-05-02T00:28:08.580Z,71.7
2018-05-02T00:33:08.352Z,71.9
2018-05-02T00:38:08.383Z,72.7
2018-05-02T00:43:08.275Z,73.2
2018-05-02T00:48:08.358Z,73.2
2018-05-02T00:53:11.954Z,72.2
2018-05-02T00:58:11.885Z,71.7
2018-05-02T01:03:24.739Z,72.5
2018-05-02T01:08:24.468Z,72.6
2018-05-02T01:13:24.460Z,72.1
2018-05-02T01:18:24.608Z,72.4
2018-05-02T01:23:24.660Z,72.7
2018-05-02T01:28:24.689Z,72.6
2018-05-02T01:33:24.618Z,74.3
2018-05-02T01:38:24.978Z,74.1
2018-05-02T01:43:24.911Z,73.9
2018-05-02T01:48:37.168Z,74.7
2018-05-02T01:53:36.838Z,74.1
2018-05-02T01:58:37.086Z,74.2
2018-05-02T02:03:36.993Z,74.6
2018-05-02T02:08:37.013Z,75.3
2018-05-02T02:13:37.081Z,74
2018-05-02T02:18:37.116Z,74
2018-05-02T02:23:37.180Z,75
2018-05-02T02:28:37.092Z,75.3
2018-05-02T02:33:49.618Z,77
2018-05-02T02:38:49.538Z,76.8
2018-05-02T02:43:49.345Z,76.8
2018-05-02T02:48:49.533Z,76
2018-05-02T02:53:49.514Z,76.3
2018-05-02T02:58:49.345Z,76.8
2018-05-02T03:03:49.351Z,77.1
2018-05-02T03:08:49.539Z,78.7
2018-05-02T03:13:49.470Z,78.4
2018-05-02T03:18:49.498Z,77.5
2018-05-02T03:23:49.540Z,78.1
2018-05-02T03:28:49.577Z,79.5
2018-05-02T03:33:50.717Z,80.2
2018-05-02T03:38:50.496Z,80.2
2018-05-02T03:44:02.895Z,79.6
2018-05-02T03:49:02.832Z,79.4
2018-05-02T03:54:02.771Z,79.9
2018-05-02T03:59:02.790Z,79.4
2018-05-02T04:04:02.817Z,80.9
2018-05-02T04:09:02.611Z,80.8
2018-05-02T04:14:02.813Z,80.1
2018-05-02T04:19:03.417Z,79.8
2018-05-02T04:24:03.333Z,79.4
2018-05-02T04:29:16.148Z,79.7
2018-05-02T04:34:15.978Z,79.8
2018-05-02T04:39:16.108Z,78.9
2018-05-02T04:44:15.887Z,78.9
2018-05-02T04:49:15.892Z,78.9
2018-05-02T04:54:15.874Z,78.4
2018-05-02T04:59:15.878Z,78.3
2018-05-02T05:04:16.004Z,79.5
2018-05-02T05:09:16.069Z,79.5
2018-05-02T05:14:15.911Z,79.5
2018-05-02T05:19:15.894Z,78.7
2018-05-02T05:24:16.058Z,78.3
2018-05-02T05:29:18.342Z,77.4
2018-05-02T05:34:18.072Z,79.2
2018-05-02T05:39:30.661Z,77.9
2018-05-02T05:44:30.522Z,77.8
2018-05-02T05:49:30.409Z,75.9
2018-05-02T05:54:30.945Z,76.3
2018-05-02T05:59:30.398Z,76.5
2018-05-02T06:04:30.586Z,76
2018-05-02T06:09:30.607Z,76
2018-05-02T06:14:30.808Z,75.7
2018-05-02T06:19:30.540Z,74.6
2018-05-02T06:24:44.084Z,73.6
2018-05-02T06:29:43.948Z,75.1
2018-05-02T06:34:43.995Z,71.9
2018-05-02T06:39:44.041Z,72.7
2018-05-02T06:44:43.814Z,71.4
2018-05-02T06:49:43.802Z,69.9
2018-05-02T06:54:44.021Z,70.4
2018-05-02T06:59:43.848Z,69.8
2018-05-02T07:04:43.971Z,72.1
2018-05-02T07:09:44.019Z,70.4
2018-05-02T07:14:44.046Z,69.6
2018-05-02T07:19:43.962Z,68.7
2018-05-02T07:24:44.462Z,68.1
2018-05-02T07:29:44.210Z,69.5
2018-05-02T07:34:56.973Z,68
2018-05-02T07:39:56.932Z,68
2018-05-02T07:44:56.871Z,67.6
2018-05-02T07:49:56.878Z,68.5
2018-05-02T07:54:56.924Z,68.1
2018-05-02T07:59:56.693Z,68.2
2018-05-02T08:04:56.697Z,66.3
2018-05-02T08:09:58.101Z,67.6
2018-05-02T08:14:57.664Z,68.7
2018-05-02T08:20:10.397Z,65.9
2018-05-02T08:25:10.348Z,67.2
2018-05-02T08:30:10.124Z,66.6
2018-05-02T08:35:10.289Z,66.2
2018-05-02T08:40:10.367Z,66.3
2018-05-02T08:45:10.163Z,64.3
2018-05-02T08:50:10.291Z,61.8
2018-05-02T08:55:10.339Z,61.4
2018-05-02T09:00:10.165Z,60.8
2018-05-02T09:05:10.168Z,60.8
2018-05-02T09:10:10.334Z,59.9
2018-05-02T09:15:10.161Z,56.6
2018-05-02T09:20:10.933Z,55.6
2018-05-02T09:25:10.843Z,56.3
2018-05-02T09:30:26.344Z,55.1
2018-05-02T09:35:26.088Z,54.4
2018-05-02T09:40:26.068Z,55.3
2018-05-02T09:45:26.226Z,55.1
2018-05-02T09:50:26.285Z,54.4
2018-05-02T09:55:26.074Z,53.5
2018-05-02T10:00:26.225Z,53.9
2018-05-02T10:05:27.136Z,54.8
2018-05-02T10:10:26.956Z,54.5
2018-05-02T10:15:39.982Z,54.8
2018-05-02T10:20:39.694Z,54.8
2018-05-02T10:25:39.816Z,54.2
2018-05-02T10:30:39.881Z,53.9
2018-05-02T10:35:39.724Z,55.7
2018-05-02T10:40:39.679Z,55.1
2018-05-02T10:45:39.887Z,53.9
2018-05-02T10:50:39.873Z,53.8
2018-05-02T10:55:39.884Z,54
2018-05-02T11:00:39.952Z,52.4
2018-05-02T11:05:39.733Z,52.4
2018-05-02T11:10:39.934Z,53.5
2018-05-02T11:15:42.415Z,53.9
2018-05-02T11:20:42.295Z,52.9
2018-05-02T11:25:54.927Z,53.4
2018-05-02T11:30:54.816Z,51.9
2018-05-02T11:35:54.645Z,52.3
2018-05-02T11:40:54.760Z,50.5
2018-05-02T11:45:54.656Z,49.6
2018-05-02T11:50:54.640Z,48.6
2018-05-02T11:55:54.655Z,48.2
2018-05-02T12:00:58.818Z,48.4
2018-05-02T12:05:58.746Z,47.6
2018-05-02T12:11:11.377Z,46.9
2018-05-02T12:16:11.372Z,47
2018-05-02T12:21:11.343Z,47.1
2018-05-02T12:26:11.580Z,45.3
2018-05-02T12:31:11.258Z,46.2
2018-05-02T12:36:11.119Z,46.1
2018-05-02T12:41:11.283Z,46.1
2018-05-02T12:46:11.297Z,44.5
2018-05-02T12:51:11.123Z,45.3
2018-05-02T12:56:11.462Z,46
2018-05-02T13:01:11.423Z,45.6
2018-05-02T13:06:11.336Z,45.7
2018-05-02T13:11:12.425Z,45.3
2018-05-02T13:16:12.307Z,44.9
2018-05-02T13:21:12.158Z,43.5
2018-05-02T13:26:12.156Z,43.7
2018-05-02T13:31:12.339Z,45.2
2018-05-02T13:36:12.332Z,44.7
2018-05-02T13:41:12.414Z,45.9
2018-05-02T13:46:12.348Z,44.1
2018-05-02T13:51:12.169Z,44.5
2018-05-02T13:56:12.207Z,45.3
2018-05-02T14:01:14.985Z,45.4
2018-05-02T14:06:14.716Z,45.9
2018-05-02T14:11:27.215Z,46
2018-05-02T14:16:26.922Z,45.9
2018-05-02T14:21:27.090Z,45.4
2018-05-02T14:26:27.149Z,46.5
2018-05-02T14:31:27.049Z,46
2018-05-02T14:36:27.115Z,47.5
2018-05-02T14:41:28.188Z,47.6
2018-05-02T14:46:29.249Z,47.6
2018-05-02T14:51:28.962Z,47.6
2018-05-02T14:56:41.204Z,46.9
2018-05-02T15:01:41.599Z,47.9
2018-05-02T15:06:42.412Z,47.6
2018-05-02T15:11:40.941Z,47.8
2018-05-02T15:16:40.924Z,47.2
2018-05-02T15:21:42.363Z,46.1
2018-05-02T15:26:42.289Z,46.4
2018-05-02T15:31:42.211Z,47.4
2018-05-02T15:36:42.125Z,48.1
2018-05-02T15:41:42.116Z,48.7
2018-05-02T15:46:42.493Z,49.3
2018-05-02T15:51:42.382Z,49.6
2018-05-02T15:56:43.762Z,50.1
2018-05-02T16:01:43.678Z,50.9
2018-05-02T16:06:56.206Z,50.8
2018-05-02T16:11:55.929Z,50.5
2018-05-02T16:16:56.137Z,51.5
2018-05-02T16:21:55.942Z,51.6
2018-05-02T16:26:55.866Z,51.4
2018-05-02T16:31:55.927Z,52.1
2018-05-02T16:36:55.939Z,51.8
2018-05-02T16:41:55.927Z,52.2
2018-05-02T16:46:55.954Z,52.7
2018-05-02T16:52:07.695Z,52.2
2018-05-02T16:57:07.463Z,52.5
2018-05-02T17:02:07.434Z,53.4
2018-05-02T17:07:07.417Z,52.4
2018-05-02T17:12:07.660Z,53.2
2018-05-02T17:17:07.684Z,53.1
2018-05-02T17:22:08.035Z,55.4
2018-05-02T17:27:07.644Z,55.1
2018-05-02T17:32:07.671Z,57.1
2018-05-02T17:37:07.673Z,57.8
2018-05-02T17:42:07.704Z,57.7
2018-05-02T17:47:07.685Z,59.3
2018-05-02T17:52:08.895Z,58
2018-05-02T17:57:08.457Z,59
2018-05-02T18:02:21.687Z,60.8
2018-05-02T18:07:21.399Z,61.9
2018-05-02T18:12:21.413Z,62
2018-05-02T18:17:21.422Z,63.1
2018-05-02T18:22:21.436Z,64.1
2018-05-02T18:27:21.434Z,65.3
2018-05-02T18:32:21.421Z,64.7
2018-05-02T18:37:23.898Z,65.1
2018-05-02T18:42:23.652Z,65.8
2018-05-02T18:47:34.688Z,65.3
2018-05-02T18:52:34.417Z,67.4
2018-05-02T18:57:34.428Z,67.4
2018-05-02T19:02:34.413Z,67.7
2018-05-02T19:07:34.961Z,68.1
2018-05-02T19:12:34.458Z,68.8
2018-05-02T19:17:35.432Z,69
2018-05-02T19:22:38.442Z,70.5
2018-05-02T19:27:38.177Z,72.4
2018-05-02T19:32:50.450Z,71.9
2018-05-02T19:37:51.742Z,71.9
2018-05-02T19:42:50.253Z,72.5
2018-05-02T19:47:50.160Z,72
2018-05-02T19:52:50.156Z,74.8
2018-05-02T19:57:50.289Z,73.9
2018-05-02T20:02:50.151Z,74.5
2018-05-02T20:07:50.369Z,74.2
2018-05-02T20:12:50.171Z,73.6
2018-05-02T20:18:01.911Z,74.4
2018-05-02T20:23:01.665Z,73.4
2018-05-02T20:28:01.564Z,75.4
2018-05-02T20:33:01.555Z,73.4
2018-05-02T20:38:01.552Z,72.1
2018-05-02T20:43:01.564Z,67.9
2018-05-02T20:48:01.589Z,68.6
2018-05-02T20:53:01.578Z,68.7
2018-05-02T20:58:01.754Z,68.1
2018-05-02T21:03:01.741Z,69
2018-05-02T21:08:04.039Z,68.8
2018-05-02T21:13:03.771Z,68.2
2018-05-02T21:18:03.762Z,67.2
2018-05-02T21:23:03.996Z,67.8
2018-05-02T21:28:03.974Z,68
2018-05-02T21:33:03.975Z,68.6
2018-05-02T21:38:04.192Z,68.8
2018-05-02T21:43:07.006Z,70.5
2018-05-02T21:48:06.904Z,72.5
2018-05-02T21:53:19.379Z,73.3
2018-05-02T21:58:19.146Z,73.4
2018-05-02T22:03:19.100Z,73.2
2018-05-02T22:08:19.149Z,73.4
2018-05-02T22:13:19.279Z,73.3
2018-05-02T22:18:19.303Z,73.3
2018-05-02T22:23:19.244Z,73.5
2018-05-02T22:28:19.195Z,73.5
2018-05-02T22:33:19.425Z,73
2018-05-02T22:38:31.195Z,72.8
2018-05-02T22:43:31.032Z,71.2
2018-05-02T22:48:31.057Z,72
2018-05-02T22:53:31.098Z,73.2
2018-05-02T22:58:31.157Z,72.8
2018-05-02T23:03:30.931Z,71
2018-05-02T23:08:31.099Z,71.3
2018-05-02T23:13:31.136Z,72.3
2018-05-02T23:18:31.382Z,72.6
2018-05-02T23:23:31.297Z,71.4
2018-05-02T23:28:31.346Z,71.1
2018-05-02T23:33:31.376Z,69.8
2018-05-02T23:38:31.936Z,68.3
2018-05-02T23:43:31.853Z,67.5
2018-05-02T23:48:43.937Z,68.1
2018-05-02T23:53:43.905Z,69.8
2018-05-02T23:58:43.676Z,69.7
